Current | Forecast
Updated: 3:30 AM CEST on April 23, 2018
Observed at Reus, Spain
Temperature 14°C
Humidity 82%
Dew Point 11°C
Wind North at 2 km/h
Pressure 1018 hPa (Falling)
Conditions Clear
Visibility -
UV N/A
Clouds
Yesterday's Maximum 23°C
Yesterday's Minimum 14°C approx.
Yesterday's Cooling Degree Days N/A approx.
Sunrise7:05 AM CEST
Sunset8:46 PM CEST
Moon Rise1:40 PM CEST
Moon Set3:29 AM CEST
Moon PhaseMoon Phase
First Quarter
Raw METARMETAR LERS 230130Z AUTO 35001KT CAVOK 14/11 Q1018


Monday
. High: 89° F.
Tuesday
. High: 87° F.
Wednesday
. High: 78° F.
Thursday
. High: 78° F.
Friday
. High: 78° F.
Saturday
. High: 87° F.
Sunday
. High: 84° F.
Monday
. High: 87° F.

Click here for Marine Information
Scientific forecaster discussion (NWS)

Units: English | Metric

Find the Weather for any City, State or Zipcode, or Country:

U.S. State List | Severe Weather | Tropical Storms | Ski Conditions
United States | Canada | Central America | South America | Asia | Europe | Australia | Africa | Islands

Weather Underground

© Copyright 2018
The Weather Company, LLC